sensor_id;sensor_type;location;lat;lon;timestamp;temperature;humidity
44900;DHT22;30628;51.188;6.770;2023-07-31T00:02:23;18.90;99.90
44900;DHT22;30628;51.188;6.770;2023-07-31T00:04:49;19.00;99.90
44900;DHT22;30628;51.188;6.770;2023-07-31T00:07:14;19.00;99.90
44900;DHT22;30628;51.188;6.770;2023-07-31T00:09:40;19.00;99.90
44900;DHT22;30628;51.188;6.770;2023-07-31T00:12:06;19.00;99.90
44900;DHT22;30628;51.188;6.770;2023-07-31T00:14:32;18.80;99.90
44900;DHT22;30628;51.188;6.770;2023-07-31T00:16:57;18.80;99.90
44900;DHT22;30628;51.188;6.770;2023-07-31T00:19:23;18.80;99.90
44900;DHT22;30628;51.188;6.770;2023-07-31T00:21:49;19.00;99.90
44900;DHT22;30628;51.188;6.770;2023-07-31T00:24:14;19.10;99.90
44900;DHT22;30628;51.188;6.770;2023-07-31T00:26:55;19.10;99.90
44900;DHT22;30628;51.188;6.770;2023-07-31T00:29:21;19.20;99.90
44900;DHT22;30628;51.188;6.770;2023-07-31T00:31:47;19.30;99.90
44900;DHT22;30628;51.188;6.770;2023-07-31T00:34:12;19.20;99.90
44900;DHT22;30628;51.188;6.770;2023-07-31T00:36:38;19.20;99.90
44900;DHT22;30628;51.188;6.770;2023-07-31T00:39:04;19.10;99.90
44900;DHT22;30628;51.188;6.770;2023-07-31T00:41:30;19.10;99.90
44900;DHT22;30628;51.188;6.770;2023-07-31T00:43:55;19.10;99.90
44900;DHT22;30628;51.188;6.770;2023-07-31T00:46:21;19.10;99.90
44900;DHT22;30628;51.188;6.770;2023-07-31T00:48:47;19.10;99.90
44900;DHT22;30628;51.188;6.770;2023-07-31T00:51:12;19.10;99.90
44900;DHT22;30628;51.188;6.770;2023-07-31T00:53:39;19.30;99.90
44900;DHT22;30628;51.188;6.770;2023-07-31T00:56:05;19.20;99.90
44900;DHT22;30628;51.188;6.770;2023-07-31T00:58:31;19.10;99.90
44900;DHT22;30628;51.188;6.770;2023-07-31T01:00:57;19.10;99.90
44900;DHT22;30628;51.188;6.770;2023-07-31T01:03:23;19.10;99.90
44900;DHT22;30628;51.188;6.770;2023-07-31T01:10:56;19.10;99.90
44900;DHT22;30628;51.188;6.770;2023-07-31T01:13:23;19.20;99.90
44900;DHT22;30628;51.188;6.770;2023-07-31T01:15:48;19.10;99.90
44900;DHT22;30628;51.188;6.770;2023-07-31T01:18:14;19.10;99.90
44900;DHT22;30628;51.188;6.770;2023-07-31T01:20:42;19.20;99.90
44900;DHT22;30628;51.188;6.770;2023-07-31T01:32:06;19.20;99.90
44900;DHT22;30628;51.188;6.770;2023-07-31T01:34:33;19.10;99.90
44900;DHT22;30628;51.188;6.770;2023-07-31T01:37:00;19.10;99.90
44900;DHT22;30628;51.188;6.770;2023-07-31T01:39:26;19.10;99.90
44900;DHT22;30628;51.188;6.770;2023-07-31T01:41:51;19.00;99.90
44900;DHT22;30628;51.188;6.770;2023-07-31T01:44:17;18.90;99.90
44900;DHT22;30628;51.188;6.770;2023-07-31T01:46:43;18.90;99.90
44900;DHT22;30628;51.188;6.770;2023-07-31T01:49:08;18.90;99.90
44900;DHT22;30628;51.188;6.770;2023-07-31T01:51:34;18.70;99.90
44900;DHT22;30628;51.188;6.770;2023-07-31T01:54:03;18.70;99.90
44900;DHT22;30628;51.188;6.770;2023-07-31T01:56:28;18.80;99.90
44900;DHT22;30628;51.188;6.770;2023-07-31T01:58:54;18.80;99.90
44900;DHT22;30628;51.188;6.770;2023-07-31T02:01:20;18.80;99.90
44900;DHT22;30628;51.188;6.770;2023-07-31T02:03:45;18.80;99.90
44900;DHT22;30628;51.188;6.770;2023-07-31T02:06:11;18.90;99.90
44900;DHT22;30628;51.188;6.770;2023-07-31T02:08:37;18.90;99.90
44900;DHT22;30628;51.188;6.770;2023-07-31T02:11:03;18.90;99.90
44900;DHT22;30628;51.188;6.770;2023-07-31T02:13:29;18.90;99.90
44900;DHT22;30628;51.188;6.770;2023-07-31T02:15:54;19.00;99.90
44900;DHT22;30628;51.188;6.770;2023-07-31T02:18:20;19.10;99.90
44900;DHT22;30628;51.188;6.770;2023-07-31T02:20:51;19.10;99.90
44900;DHT22;30628;51.188;6.770;2023-07-31T02:23:18;19.20;99.90
44900;DHT22;30628;51.188;6.770;2023-07-31T02:25:44;19.20;99.90
44900;DHT22;30628;51.188;6.770;2023-07-31T02:28:25;19.30;99.90
44900;DHT22;30628;51.188;6.770;2023-07-31T02:30:50;19.30;99.90
44900;DHT22;30628;51.188;6.770;2023-07-31T02:33:17;19.50;99.90
44900;DHT22;30628;51.188;6.770;2023-07-31T02:35:43;19.50;99.90
44900;DHT22;30628;51.188;6.770;2023-07-31T02:38:08;19.50;99.90
44900;DHT22;30628;51.188;6.770;2023-07-31T02:40:34;19.40;99.90
44900;DHT22;30628;51.188;6.770;2023-07-31T02:43:00;19.40;99.90
44900;DHT22;30628;51.188;6.770;2023-07-31T02:45:25;19.40;99.90
44900;DHT22;30628;51.188;6.770;2023-07-31T02:47:51;19.30;99.90
44900;DHT22;30628;51.188;6.770;2023-07-31T02:50:16;19.30;99.90
44900;DHT22;30628;51.188;6.770;2023-07-31T02:52:42;19.30;99.90
44900;DHT22;30628;51.188;6.770;2023-07-31T02:55:08;19.40;99.90
44900;DHT22;30628;51.188;6.770;2023-07-31T02:57:33;19.50;99.90
44900;DHT22;30628;51.188;6.770;2023-07-31T02:59:59;19.50;99.90
44900;DHT22;30628;51.188;6.770;2023-07-31T03:02:24;19.50;99.90
44900;DHT22;30628;51.188;6.770;2023-07-31T03:04:50;19.40;99.90
44900;DHT22;30628;51.188;6.770;2023-07-31T03:07:16;19.40;99.90
44900;DHT22;30628;51.188;6.770;2023-07-31T03:09:41;19.40;99.90
44900;DHT22;30628;51.188;6.770;2023-07-31T03:12:07;19.40;99.90
44900;DHT22;30628;51.188;6.770;2023-07-31T03:14:33;19.40;99.90
44900;DHT22;30628;51.188;6.770;2023-07-31T03:16:59;19.50;99.90
44900;DHT22;30628;51.188;6.770;2023-07-31T03:19:25;19.50;99.90
44900;DHT22;30628;51.188;6.770;2023-07-31T03:21:50;19.40;99.90
44900;DHT22;30628;51.188;6.770;2023-07-31T03:24:16;19.50;99.90
44900;DHT22;30628;51.188;6.770;2023-07-31T03:26:41;19.40;99.90
44900;DHT22;30628;51.188;6.770;2023-07-31T03:29:08;19.50;99.90
44900;DHT22;30628;51.188;6.770;2023-07-31T03:31:33;19.50;99.90
44900;DHT22;30628;51.188;6.770;2023-07-31T03:33:59;19.30;99.90
44900;DHT22;30628;51.188;6.770;2023-07-31T03:36:25;19.40;99.90
44900;DHT22;30628;51.188;6.770;2023-07-31T03:38:51;19.40;99.90
44900;DHT22;30628;51.188;6.770;2023-07-31T03:41:17;19.30;99.90
44900;DHT22;30628;51.188;6.770;2023-07-31T03:43:43;19.30;99.90
44900;DHT22;30628;51.188;6.770;2023-07-31T03:46:08;19.30;99.90
44900;DHT22;30628;51.188;6.770;2023-07-31T03:48:34;19.40;99.90
44900;DHT22;30628;51.188;6.770;2023-07-31T03:50:59;19.40;99.90
44900;DHT22;30628;51.188;6.770;2023-07-31T03:53:25;19.40;99.90
44900;DHT22;30628;51.188;6.770;2023-07-31T03:55:51;19.40;99.90
44900;DHT22;30628;51.188;6.770;2023-07-31T03:58:16;19.30;99.90
44900;DHT22;30628;51.188;6.770;2023-07-31T04:00:42;19.50;99.90
44900;DHT22;30628;51.188;6.770;2023-07-31T04:03:07;19.50;99.90
44900;DHT22;30628;51.188;6.770;2023-07-31T04:05:33;19.60;99.90
44900;DHT22;30628;51.188;6.770;2023-07-31T04:08:03;19.60;99.90
44900;DHT22;30628;51.188;6.770;2023-07-31T04:10:28;19.50;99.90
44900;DHT22;30628;51.188;6.770;2023-07-31T04:12:55;19.50;99.90
44900;DHT22;30628;51.188;6.770;2023-07-31T04:15:20;19.60;99.90
44900;DHT22;30628;51.188;6.770;2023-07-31T04:17:46;19.60;99.90
44900;DHT22;30628;51.188;6.770;2023-07-31T04:20:11;19.60;99.90
44900;DHT22;30628;51.188;6.770;2023-07-31T04:22:37;19.60;99.90
44900;DHT22;30628;51.188;6.770;2023-07-31T04:25:03;19.60;99.90
44900;DHT22;30628;51.188;6.770;2023-07-31T04:27:28;19.70;99.90
44900;DHT22;30628;51.188;6.770;2023-07-31T04:29:54;19.70;99.90
44900;DHT22;30628;51.188;6.770;2023-07-31T04:32:19;19.70;99.90
44900;DHT22;30628;51.188;6.770;2023-07-31T04:34:46;19.70;99.90
44900;DHT22;30628;51.188;6.770;2023-07-31T04:37:11;19.80;99.90
44900;DHT22;30628;51.188;6.770;2023-07-31T04:39:37;19.80;99.90
44900;DHT22;30628;51.188;6.770;2023-07-31T04:42:03;19.80;99.90
44900;DHT22;30628;51.188;6.770;2023-07-31T04:44:28;19.70;99.90
44900;DHT22;30628;51.188;6.770;2023-07-31T04:46:54;19.80;99.90
44900;DHT22;30628;51.188;6.770;2023-07-31T04:49:20;19.80;99.90
44900;DHT22;30628;51.188;6.770;2023-07-31T04:51:45;19.80;99.90
44900;DHT22;30628;51.188;6.770;2023-07-31T04:54:11;20.00;99.90
44900;DHT22;30628;51.188;6.770;2023-07-31T04:56:38;20.00;99.90
44900;DHT22;30628;51.188;6.770;2023-07-31T04:59:03;20.10;99.90
44900;DHT22;30628;51.188;6.770;2023-07-31T05:01:29;20.00;99.90
44900;DHT22;30628;51.188;6.770;2023-07-31T05:03:54;20.00;99.90
44900;DHT22;30628;51.188;6.770;2023-07-31T05:06:20;20.00;99.90
44900;DHT22;30628;51.188;6.770;2023-07-31T05:08:46;20.10;99.90
44900;DHT22;30628;51.188;6.770;2023-07-31T05:11:12;20.00;99.90
44900;DHT22;30628;51.188;6.770;2023-07-31T05:13:37;19.90;99.90
44900;DHT22;30628;51.188;6.770;2023-07-31T05:16:03;19.90;99.90
44900;DHT22;30628;51.188;6.770;2023-07-31T05:18:29;19.90;99.90
44900;DHT22;30628;51.188;6.770;2023-07-31T05:20:54;20.00;99.90
44900;DHT22;30628;51.188;6.770;2023-07-31T05:23:20;19.90;99.90
44900;DHT22;30628;51.188;6.770;2023-07-31T05:25:45;19.90;99.90
44900;DHT22;30628;51.188;6.770;2023-07-31T05:28:12;19.90;99.90
44900;DHT22;30628;51.188;6.770;2023-07-31T05:30:38;19.90;99.90
44900;DHT22;30628;51.188;6.770;2023-07-31T05:33:03;19.80;99.90
44900;DHT22;30628;51.188;6.770;2023-07-31T05:35:29;19.80;99.90
44900;DHT22;30628;51.188;6.770;2023-07-31T05:37:54;19.90;99.90
44900;DHT22;30628;51.188;6.770;2023-07-31T05:40:20;19.80;99.90
44900;DHT22;30628;51.188;6.770;2023-07-31T05:42:46;19.80;99.90
44900;DHT22;30628;51.188;6.770;2023-07-31T05:45:11;19.80;99.90
44900;DHT22;30628;51.188;6.770;2023-07-31T05:47:39;19.90;99.90
44900;DHT22;30628;51.188;6.770;2023-07-31T05:50:04;20.00;99.90
44900;DHT22;30628;51.188;6.770;2023-07-31T05:52:30;19.90;99.90
44900;DHT22;30628;51.188;6.770;2023-07-31T05:54:56;19.80;99.90
44900;DHT22;30628;51.188;6.770;2023-07-31T05:57:22;19.90;99.90
44900;DHT22;30628;51.188;6.770;2023-07-31T05:59:47;19.90;99.90
44900;DHT22;30628;51.188;6.770;2023-07-31T06:02:13;19.90;99.90
44900;DHT22;30628;51.188;6.770;2023-07-31T06:04:38;19.90;99.90
44900;DHT22;30628;51.188;6.770;2023-07-31T06:07:04;19.90;99.90
44900;DHT22;30628;51.188;6.770;2023-07-31T06:09:30;19.80;99.90
44900;DHT22;30628;51.188;6.770;2023-07-31T06:11:56;19.80;99.90
44900;DHT22;30628;51.188;6.770;2023-07-31T06:14:22;19.70;99.90
44900;DHT22;30628;51.188;6.770;2023-07-31T06:16:47;19.70;99.90
44900;DHT22;30628;51.188;6.770;2023-07-31T06:19:13;19.70;99.90
44900;DHT22;30628;51.188;6.770;2023-07-31T06:21:39;19.70;99.90
44900;DHT22;30628;51.188;6.770;2023-07-31T06:24:05;19.80;99.90
44900;DHT22;30628;51.188;6.770;2023-07-31T06:26:31;19.80;99.90
44900;DHT22;30628;51.188;6.770;2023-07-31T06:28:56;19.70;99.90
44900;DHT22;30628;51.188;6.770;2023-07-31T06:31:22;19.70;99.90
44900;DHT22;30628;51.188;6.770;2023-07-31T06:33:49;19.70;99.90
44900;DHT22;30628;51.188;6.770;2023-07-31T06:36:14;19.80;99.90
44900;DHT22;30628;51.188;6.770;2023-07-31T06:38:40;19.70;99.90
44900;DHT22;30628;51.188;6.770;2023-07-31T06:41:06;19.70;99.90
44900;DHT22;30628;51.188;6.770;2023-07-31T06:43:31;19.70;99.90
44900;DHT22;30628;51.188;6.770;2023-07-31T06:45:57;19.80;99.90
44900;DHT22;30628;51.188;6.770;2023-07-31T06:48:22;19.80;99.90
44900;DHT22;30628;51.188;6.770;2023-07-31T06:50:48;19.80;99.90
44900;DHT22;30628;51.188;6.770;2023-07-31T06:53:14;19.70;99.90
44900;DHT22;30628;51.188;6.770;2023-07-31T06:55:39;19.70;99.90
44900;DHT22;30628;51.188;6.770;2023-07-31T06:58:05;19.70;99.90
44900;DHT22;30628;51.188;6.770;2023-07-31T07:00:31;19.70;99.90
44900;DHT22;30628;51.188;6.770;2023-07-31T07:02:57;19.80;99.90
44900;DHT22;30628;51.188;6.770;2023-07-31T07:05:23;19.80;99.90
44900;DHT22;30628;51.188;6.770;2023-07-31T07:07:49;19.70;99.90
44900;DHT22;30628;51.188;6.770;2023-07-31T07:10:16;19.70;99.90
44900;DHT22;30628;51.188;6.770;2023-07-31T07:12:42;19.60;99.90
44900;DHT22;30628;51.188;6.770;2023-07-31T07:15:08;19.60;99.90
44900;DHT22;30628;51.188;6.770;2023-07-31T07:17:34;19.60;99.90
44900;DHT22;30628;51.188;6.770;2023-07-31T07:20:00;19.50;99.90
44900;DHT22;30628;51.188;6.770;2023-07-31T07:22:26;19.60;99.90
44900;DHT22;30628;51.188;6.770;2023-07-31T07:24:52;19.70;99.90
44900;DHT22;30628;51.188;6.770;2023-07-31T07:27:18;19.70;99.90
44900;DHT22;30628;51.188;6.770;2023-07-31T07:29:45;19.70;99.90
44900;DHT22;30628;51.188;6.770;2023-07-31T07:32:11;19.60;99.90
44900;DHT22;30628;51.188;6.770;2023-07-31T07:34:37;19.50;99.90
44900;DHT22;30628;51.188;6.770;2023-07-31T07:37:03;19.50;99.90
44900;DHT22;30628;51.188;6.770;2023-07-31T07:39:29;19.50;99.90
44900;DHT22;30628;51.188;6.770;2023-07-31T07:41:54;19.50;99.90
44900;DHT22;30628;51.188;6.770;2023-07-31T07:44:20;19.60;99.90
44900;DHT22;30628;51.188;6.770;2023-07-31T07:46:45;19.50;99.90
44900;DHT22;30628;51.188;6.770;2023-07-31T07:49:11;19.40;99.90
44900;DHT22;30628;51.188;6.770;2023-07-31T07:51:37;19.50;99.90
44900;DHT22;30628;51.188;6.770;2023-07-31T07:54:02;19.40;99.90
44900;DHT22;30628;51.188;6.770;2023-07-31T07:56:28;19.40;99.90
44900;DHT22;30628;51.188;6.770;2023-07-31T07:58:54;19.40;99.90
44900;DHT22;30628;51.188;6.770;2023-07-31T08:01:20;19.50;99.90
44900;DHT22;30628;51.188;6.770;2023-07-31T08:03:46;19.50;99.90
44900;DHT22;30628;51.188;6.770;2023-07-31T08:06:11;19.50;99.90
44900;DHT22;30628;51.188;6.770;2023-07-31T08:08:37;19.50;99.90
44900;DHT22;30628;51.188;6.770;2023-07-31T08:11:03;19.40;99.90
44900;DHT22;30628;51.188;6.770;2023-07-31T08:13:29;19.40;99.90
44900;DHT22;30628;51.188;6.770;2023-07-31T08:15:55;19.40;99.90
44900;DHT22;30628;51.188;6.770;2023-07-31T08:18:20;19.40;99.90
44900;DHT22;30628;51.188;6.770;2023-07-31T08:20:46;19.50;99.90
44900;DHT22;30628;51.188;6.770;2023-07-31T08:23:12;19.40;99.90
44900;DHT22;30628;51.188;6.770;2023-07-31T08:25:38;19.50;99.90
44900;DHT22;30628;51.188;6.770;2023-07-31T08:28:04;19.50;99.90
44900;DHT22;30628;51.188;6.770;2023-07-31T08:30:30;19.60;99.90
44900;DHT22;30628;51.188;6.770;2023-07-31T08:32:55;19.60;99.90
44900;DHT22;30628;51.188;6.770;2023-07-31T08:35:21;19.70;99.90
44900;DHT22;30628;51.188;6.770;2023-07-31T08:37:46;19.60;99.90
44900;DHT22;30628;51.188;6.770;2023-07-31T08:40:12;19.60;99.90
44900;DHT22;30628;51.188;6.770;2023-07-31T08:42:45;19.60;99.90
44900;DHT22;30628;51.188;6.770;2023-07-31T08:45:19;19.50;99.90
44900;DHT22;30628;51.188;6.770;2023-07-31T08:47:46;19.50;99.90
44900;DHT22;30628;51.188;6.770;2023-07-31T08:50:13;19.60;99.90
44900;DHT22;30628;51.188;6.770;2023-07-31T08:52:39;19.60;99.90
44900;DHT22;30628;51.188;6.770;2023-07-31T08:55:06;19.70;99.90
44900;DHT22;30628;51.188;6.770;2023-07-31T08:57:32;19.60;99.90
44900;DHT22;30628;51.188;6.770;2023-07-31T09:00:00;19.60;99.90
44900;DHT22;30628;51.188;6.770;2023-07-31T09:02:31;19.60;99.90
44900;DHT22;30628;51.188;6.770;2023-07-31T09:05:00;19.60;99.90
44900;DHT22;30628;51.188;6.770;2023-07-31T09:07:26;19.70;99.90
44900;DHT22;30628;51.188;6.770;2023-07-31T09:09:52;19.60;99.90
44900;DHT22;30628;51.188;6.770;2023-07-31T09:12:17;19.60;99.90
44900;DHT22;30628;51.188;6.770;2023-07-31T09:14:45;19.60;99.90
44900;DHT22;30628;51.188;6.770;2023-07-31T09:17:12;19.60;99.90
44900;DHT22;30628;51.188;6.770;2023-07-31T09:19:38;19.60;99.90
44900;DHT22;30628;51.188;6.770;2023-07-31T09:22:07;19.60;99.90
44900;DHT22;30628;51.188;6.770;2023-07-31T09:24:33;19.60;99.90
44900;DHT22;30628;51.188;6.770;2023-07-31T09:27:00;19.60;99.90
44900;DHT22;30628;51.188;6.770;2023-07-31T09:29:27;19.60;99.90
44900;DHT22;30628;51.188;6.770;2023-07-31T09:31:54;19.60;99.90
44900;DHT22;30628;51.188;6.770;2023-07-31T09:34:21;19.70;99.90
44900;DHT22;30628;51.188;6.770;2023-07-31T09:36:53;19.60;99.90
44900;DHT22;30628;51.188;6.770;2023-07-31T09:39:19;19.60;99.90
44900;DHT22;30628;51.188;6.770;2023-07-31T09:41:56;19.60;99.90
44900;DHT22;30628;51.188;6.770;2023-07-31T09:44:38;19.60;99.90
44900;DHT22;30628;51.188;6.770;2023-07-31T09:47:05;19.60;99.90
44900;DHT22;30628;51.188;6.770;2023-07-31T09:49:31;19.60;99.90
44900;DHT22;30628;51.188;6.770;2023-07-31T09:51:56;19.50;99.90
44900;DHT22;30628;51.188;6.770;2023-07-31T09:54:22;19.50;99.90
44900;DHT22;30628;51.188;6.770;2023-07-31T09:56:48;19.50;99.90
44900;DHT22;30628;51.188;6.770;2023-07-31T09:59:19;19.50;99.90
44900;DHT22;30628;51.188;6.770;2023-07-31T10:01:45;19.60;99.90
44900;DHT22;30628;51.188;6.770;2023-07-31T10:04:24;19.60;99.90
44900;DHT22;30628;51.188;6.770;2023-07-31T10:06:53;19.60;99.90
44900;DHT22;30628;51.188;6.770;2023-07-31T10:09:21;19.60;99.90
44900;DHT22;30628;51.188;6.770;2023-07-31T10:11:59;19.60;99.90
44900;DHT22;30628;51.188;6.770;2023-07-31T10:14:26;19.50;99.90
44900;DHT22;30628;51.188;6.770;2023-07-31T10:16:52;19.60;99.90
44900;DHT22;30628;51.188;6.770;2023-07-31T10:19:18;19.60;99.90
44900;DHT22;30628;51.188;6.770;2023-07-31T10:21:45;19.50;99.90
44900;DHT22;30628;51.188;6.770;2023-07-31T10:24:11;19.50;99.90
44900;DHT22;30628;51.188;6.770;2023-07-31T10:26:38;19.60;99.90
44900;DHT22;30628;51.188;6.770;2023-07-31T10:29:05;19.70;99.90
44900;DHT22;30628;51.188;6.770;2023-07-31T10:31:32;19.70;99.90
44900;DHT22;30628;51.188;6.770;2023-07-31T10:33:59;19.70;99.90
44900;DHT22;30628;51.188;6.770;2023-07-31T10:36:40;19.90;99.90
44900;DHT22;30628;51.188;6.770;2023-07-31T10:39:36;20.00;99.90
44900;DHT22;30628;51.188;6.770;2023-07-31T10:42:14;20.10;99.90
44900;DHT22;30628;51.188;6.770;2023-07-31T10:44:48;20.20;99.90
44900;DHT22;30628;51.188;6.770;2023-07-31T10:47:17;20.30;99.90
44900;DHT22;30628;51.188;6.770;2023-07-31T10:49:45;20.40;99.90
44900;DHT22;30628;51.188;6.770;2023-07-31T10:52:13;20.30;99.90
44900;DHT22;30628;51.188;6.770;2023-07-31T10:54:39;20.30;99.90
44900;DHT22;30628;51.188;6.770;2023-07-31T10:57:21;20.30;99.90
44900;DHT22;30628;51.188;6.770;2023-07-31T10:59:49;20.30;99.90
44900;DHT22;30628;51.188;6.770;2023-07-31T11:02:26;20.30;99.90
44900;DHT22;30628;51.188;6.770;2023-07-31T11:05:09;20.30;99.90
44900;DHT22;30628;51.188;6.770;2023-07-31T11:07:50;20.30;99.90
44900;DHT22;30628;51.188;6.770;2023-07-31T11:10:19;20.30;99.90
44900;DHT22;30628;51.188;6.770;2023-07-31T11:12:48;20.40;99.90
44900;DHT22;30628;51.188;6.770;2023-07-31T11:15:14;20.50;99.90
44900;DHT22;30628;51.188;6.770;2023-07-31T11:17:40;20.50;99.90
44900;DHT22;30628;51.188;6.770;2023-07-31T11:20:07;20.50;99.90
44900;DHT22;30628;51.188;6.770;2023-07-31T11:22:35;20.50;99.90
44900;DHT22;30628;51.188;6.770;2023-07-31T11:25:04;20.50;99.90
44900;DHT22;30628;51.188;6.770;2023-07-31T11:27:39;20.60;99.90
44900;DHT22;30628;51.188;6.770;2023-07-31T11:30:06;20.70;99.90
44900;DHT22;30628;51.188;6.770;2023-07-31T11:32:32;20.80;99.90
44900;DHT22;30628;51.188;6.770;2023-07-31T11:34:58;20.80;99.90
44900;DHT22;30628;51.188;6.770;2023-07-31T11:37:23;20.80;99.90
44900;DHT22;30628;51.188;6.770;2023-07-31T11:40:02;20.80;99.90
44900;DHT22;30628;51.188;6.770;2023-07-31T11:42:28;20.80;99.90
44900;DHT22;30628;51.188;6.770;2023-07-31T11:44:54;20.70;99.90
44900;DHT22;30628;51.188;6.770;2023-07-31T11:47:20;20.70;99.90
44900;DHT22;30628;51.188;6.770;2023-07-31T11:49:45;20.60;99.90
44900;DHT22;30628;51.188;6.770;2023-07-31T11:52:11;20.60;99.90
44900;DHT22;30628;51.188;6.770;2023-07-31T11:54:39;20.70;99.90
44900;DHT22;30628;51.188;6.770;2023-07-31T11:57:06;20.70;99.90
44900;DHT22;30628;51.188;6.770;2023-07-31T11:59:32;20.70;99.90
44900;DHT22;30628;51.188;6.770;2023-07-31T12:01:57;20.70;99.90
44900;DHT22;30628;51.188;6.770;2023-07-31T12:04:24;20.70;99.90
44900;DHT22;30628;51.188;6.770;2023-07-31T12:06:52;20.70;99.90
44900;DHT22;30628;51.188;6.770;2023-07-31T12:09:18;20.70;99.90
44900;DHT22;30628;51.188;6.770;2023-07-31T12:11:47;20.70;99.90
44900;DHT22;30628;51.188;6.770;2023-07-31T12:14:24;20.60;99.90
44900;DHT22;30628;51.188;6.770;2023-07-31T12:16:55;20.60;99.90
44900;DHT22;30628;51.188;6.770;2023-07-31T12:19:21;20.70;99.90
44900;DHT22;30628;51.188;6.770;2023-07-31T12:21:47;20.80;99.90
44900;DHT22;30628;51.188;6.770;2023-07-31T12:24:13;20.70;99.90
44900;DHT22;30628;51.188;6.770;2023-07-31T12:26:38;20.70;99.90
44900;DHT22;30628;51.188;6.770;2023-07-31T12:29:15;20.70;99.90
44900;DHT22;30628;51.188;6.770;2023-07-31T12:31:41;20.70;99.90
44900;DHT22;30628;51.188;6.770;2023-07-31T12:34:16;20.80;99.90
44900;DHT22;30628;51.188;6.770;2023-07-31T12:36:43;20.80;99.90
44900;DHT22;30628;51.188;6.770;2023-07-31T12:39:09;20.80;99.90
44900;DHT22;30628;51.188;6.770;2023-07-31T12:41:34;20.90;99.90
44900;DHT22;30628;51.188;6.770;2023-07-31T12:44:00;21.00;99.90
44900;DHT22;30628;51.188;6.770;2023-07-31T12:46:26;21.10;99.90
44900;DHT22;30628;51.188;6.770;2023-07-31T12:48:51;21.10;99.90
44900;DHT22;30628;51.188;6.770;2023-07-31T12:51:17;21.20;99.90
44900;DHT22;30628;51.188;6.770;2023-07-31T12:53:42;21.10;99.90
44900;DHT22;30628;51.188;6.770;2023-07-31T12:56:08;21.00;99.90
44900;DHT22;30628;51.188;6.770;2023-07-31T12:58:34;21.00;99.90
44900;DHT22;30628;51.188;6.770;2023-07-31T13:00:59;21.00;99.90
44900;DHT22;30628;51.188;6.770;2023-07-31T13:03:26;21.10;99.90
44900;DHT22;30628;51.188;6.770;2023-07-31T13:05:52;21.10;99.90
44900;DHT22;30628;51.188;6.770;2023-07-31T13:08:17;21.10;99.90
44900;DHT22;30628;51.188;6.770;2023-07-31T13:10:43;21.20;99.90
44900;DHT22;30628;51.188;6.770;2023-07-31T13:13:10;21.30;99.90
44900;DHT22;30628;51.188;6.770;2023-07-31T13:15:35;21.20;99.90
44900;DHT22;30628;51.188;6.770;2023-07-31T13:18:01;21.20;99.90
44900;DHT22;30628;51.188;6.770;2023-07-31T13:20:27;21.20;99.90
44900;DHT22;30628;51.188;6.770;2023-07-31T13:22:52;21.20;99.90
44900;DHT22;30628;51.188;6.770;2023-07-31T13:25:18;21.20;99.90
44900;DHT22;30628;51.188;6.770;2023-07-31T13:27:43;21.30;99.90
44900;DHT22;30628;51.188;6.770;2023-07-31T13:30:09;21.30;99.90
44900;DHT22;30628;51.188;6.770;2023-07-31T13:32:35;21.40;99.90
44900;DHT22;30628;51.188;6.770;2023-07-31T13:35:05;21.40;99.90
44900;DHT22;30628;51.188;6.770;2023-07-31T13:37:35;21.50;99.90
44900;DHT22;30628;51.188;6.770;2023-07-31T13:40:00;21.60;99.90
44900;DHT22;30628;51.188;6.770;2023-07-31T13:42:26;21.70;99.90
44900;DHT22;30628;51.188;6.770;2023-07-31T13:44:53;21.70;99.90
44900;DHT22;30628;51.188;6.770;2023-07-31T13:47:19;21.80;99.90
44900;DHT22;30628;51.188;6.770;2023-07-31T13:49:45;21.90;99.90
44900;DHT22;30628;51.188;6.770;2023-07-31T13:52:10;21.80;99.90
44900;DHT22;30628;51.188;6.770;2023-07-31T13:54:36;21.80;99.90
44900;DHT22;30628;51.188;6.770;2023-07-31T13:57:02;21.80;99.90
44900;DHT22;30628;51.188;6.770;2023-07-31T13:59:28;21.80;99.90
44900;DHT22;30628;51.188;6.770;2023-07-31T14:01:53;21.80;99.90
44900;DHT22;30628;51.188;6.770;2023-07-31T14:04:19;21.80;99.90
44900;DHT22;30628;51.188;6.770;2023-07-31T14:06:45;21.70;99.90
44900;DHT22;30628;51.188;6.770;2023-07-31T14:09:10;21.70;99.90
44900;DHT22;30628;51.188;6.770;2023-07-31T14:11:36;21.60;99.90
44900;DHT22;30628;51.188;6.770;2023-07-31T14:14:02;21.50;99.90
44900;DHT22;30628;51.188;6.770;2023-07-31T14:16:28;21.50;99.90
44900;DHT22;30628;51.188;6.770;2023-07-31T14:18:54;21.40;99.90
44900;DHT22;30628;51.188;6.770;2023-07-31T14:21:19;21.40;99.90
44900;DHT22;30628;51.188;6.770;2023-07-31T14:23:45;21.30;99.90
44900;DHT22;30628;51.188;6.770;2023-07-31T14:26:11;21.40;99.90
44900;DHT22;30628;51.188;6.770;2023-07-31T14:28:37;21.30;99.90
44900;DHT22;30628;51.188;6.770;2023-07-31T14:31:03;21.30;99.90
44900;DHT22;30628;51.188;6.770;2023-07-31T14:33:28;21.30;99.90
44900;DHT22;30628;51.188;6.770;2023-07-31T14:35:54;21.20;99.90
44900;DHT22;30628;51.188;6.770;2023-07-31T14:38:19;21.30;99.90
44900;DHT22;30628;51.188;6.770;2023-07-31T14:40:45;21.30;99.90
44900;DHT22;30628;51.188;6.770;2023-07-31T14:43:11;21.30;99.90
44900;DHT22;30628;51.188;6.770;2023-07-31T14:45:37;21.40;99.90
44900;DHT22;30628;51.188;6.770;2023-07-31T14:48:02;21.40;99.90
44900;DHT22;30628;51.188;6.770;2023-07-31T14:50:28;21.40;99.90
44900;DHT22;30628;51.188;6.770;2023-07-31T14:52:54;21.50;99.90
44900;DHT22;30628;51.188;6.770;2023-07-31T14:55:20;21.50;99.90
44900;DHT22;30628;51.188;6.770;2023-07-31T14:57:46;21.60;99.90
44900;DHT22;30628;51.188;6.770;2023-07-31T15:00:11;21.60;99.90
44900;DHT22;30628;51.188;6.770;2023-07-31T15:02:39;21.60;99.90
44900;DHT22;30628;51.188;6.770;2023-07-31T15:05:05;21.50;99.90
44900;DHT22;30628;51.188;6.770;2023-07-31T15:07:31;21.50;99.90
44900;DHT22;30628;51.188;6.770;2023-07-31T15:09:57;21.50;99.90
44900;DHT22;30628;51.188;6.770;2023-07-31T15:12:22;21.40;99.90
44900;DHT22;30628;51.188;6.770;2023-07-31T15:14:49;21.40;99.90
44900;DHT22;30628;51.188;6.770;2023-07-31T15:17:15;21.40;99.90
44900;DHT22;30628;51.188;6.770;2023-07-31T15:19:41;21.40;99.90
44900;DHT22;30628;51.188;6.770;2023-07-31T15:22:07;21.40;99.90
44900;DHT22;30628;51.188;6.770;2023-07-31T15:24:33;21.40;99.90
44900;DHT22;30628;51.188;6.770;2023-07-31T15:26:58;21.40;99.90
44900;DHT22;30628;51.188;6.770;2023-07-31T15:29:24;21.40;99.90
44900;DHT22;30628;51.188;6.770;2023-07-31T15:31:50;21.40;99.90
44900;DHT22;30628;51.188;6.770;2023-07-31T15:34:16;21.40;99.90
44900;DHT22;30628;51.188;6.770;2023-07-31T15:36:42;21.40;99.90
44900;DHT22;30628;51.188;6.770;2023-07-31T15:39:08;21.30;99.90
44900;DHT22;30628;51.188;6.770;2023-07-31T15:41:37;21.30;99.90